createdAt,value
2023-03-24T00:01:08.990Z,11.86
2023-03-24T00:06:13.765Z,11.75
2023-03-24T00:11:21.461Z,11.76
2023-03-24T00:16:26.491Z,11.69
2023-03-24T00:21:32.615Z,11.65
2023-03-24T00:26:40.102Z,11.61
2023-03-24T00:31:45.995Z,11.62
2023-03-24T00:36:53.350Z,11.60
2023-03-24T00:42:03.402Z,11.57
2023-03-24T00:47:07.289Z,11.54
2023-03-24T00:52:11.978Z,11.59
2023-03-24T00:57:21.762Z,11.57
2023-03-24T01:02:27.443Z,11.56
2023-03-24T01:07:33.571Z,11.50
2023-03-24T01:12:38.069Z,11.48
2023-03-24T01:17:41.060Z,11.46
2023-03-24T01:22:46.403Z,11.43
2023-03-24T01:27:52.270Z,11.47
2023-03-24T01:32:55.476Z,11.50
2023-03-24T01:37:58.810Z,11.51
2023-03-24T01:43:03.297Z,11.53
2023-03-24T01:48:13.042Z,11.54
2023-03-24T01:53:17.905Z,11.53
2023-03-24T01:58:24.248Z,11.54
2023-03-24T02:03:42.016Z,11.57
2023-03-24T02:08:49.956Z,11.55
2023-03-24T02:13:54.465Z,11.56
2023-03-24T02:19:38.011Z,11.62
2023-03-24T02:25:10.630Z,11.61
2023-03-24T02:31:10.397Z,11.67
2023-03-24T02:36:49.684Z,11.69
2023-03-24T02:42:03.349Z,11.74
2023-03-24T02:47:13.198Z,11.72
2023-03-24T02:52:21.930Z,11.67
2023-03-24T02:57:34.159Z,11.74
2023-03-24T03:03:07.525Z,11.71
2023-03-24T03:08:17.331Z,11.75
2023-03-24T03:13:28.532Z,11.75
2023-03-24T03:18:35.030Z,11.74
2023-03-24T03:23:42.520Z,11.80
2023-03-24T03:28:57.790Z,11.92
2023-03-24T03:34:08.324Z,11.99
2023-03-24T03:39:15.910Z,12.10
2023-03-24T03:44:21.199Z,12.16
2023-03-24T03:49:25.671Z,12.17
2023-03-24T03:54:32.393Z,12.29
2023-03-24T03:59:39.912Z,12.30
2023-03-24T04:05:25.949Z,12.31
2023-03-24T04:10:53.551Z,12.43
2023-03-24T04:16:06.968Z,12.43
2023-03-24T04:21:51.747Z,12.56
2023-03-24T04:27:00.716Z,12.56
2023-03-24T04:32:19.510Z,12.66
2023-03-24T04:37:26.881Z,12.67
2023-03-24T04:42:38.121Z,12.74
2023-03-24T04:47:47.681Z,12.80
2023-03-24T04:53:13.465Z,12.82
2023-03-24T04:58:18.643Z,12.82
2023-03-24T05:03:23.552Z,12.86
2023-03-24T05:08:33.716Z,12.82
2023-03-24T05:13:36.947Z,12.95
2023-03-24T05:18:50.948Z,12.95
2023-03-24T05:23:55.244Z,12.95
2023-03-24T05:29:06.627Z,12.99
2023-03-24T05:34:11.954Z,12.90
2023-03-24T05:39:29.416Z,12.84
2023-03-24T05:44:39.114Z,12.80
2023-03-24T05:49:52.749Z,12.85
2023-03-24T05:54:55.732Z,12.82
2023-03-24T06:00:15.093Z,12.88
2023-03-24T06:05:45.896Z,12.91
2023-03-24T06:10:53.428Z,12.97
2023-03-24T06:16:01.625Z,13.06
2023-03-24T06:21:18.500Z,13.04
2023-03-24T06:26:22.843Z,13.04
2023-03-24T06:31:30.986Z,13.06
2023-03-24T06:36:42.368Z,13.09
2023-03-24T06:41:47.436Z,13.12
2023-03-24T06:46:51.262Z,13.11
2023-03-24T06:51:57.797Z,13.14
2023-03-24T06:57:03.270Z,13.18
2023-03-24T07:02:29.090Z,13.26
2023-03-24T07:13:08.670Z,13.43
2023-03-24T07:18:14.151Z,13.27
2023-03-24T07:23:21.796Z,13.40
2023-03-24T07:28:39.047Z,13.39
2023-03-24T07:33:43.164Z,13.49
2023-03-24T07:38:48.606Z,13.82
2023-03-24T07:43:59.362Z,13.80
2023-03-24T07:49:18.234Z,13.63
2023-03-24T07:54:27.291Z,11.92
2023-03-24T07:59:31.272Z,11.12
2023-03-24T08:05:14.268Z,10.70
2023-03-24T08:10:32.174Z,10.62
2023-03-24T08:15:36.034Z,10.59
2023-03-24T08:20:39.201Z,10.42
2023-03-24T08:25:43.358Z,10.36
2023-03-24T08:30:46.637Z,10.31
2023-03-24T08:35:54.190Z,10.38
2023-03-24T08:41:02.246Z,10.32
2023-03-24T08:46:13.273Z,10.25
2023-03-24T08:51:18.240Z,10.27
2023-03-24T08:56:24.287Z,10.34
2023-03-24T09:01:28.800Z,10.48
2023-03-24T09:06:32.700Z,10.62
2023-03-24T09:11:38.661Z,10.75
2023-03-24T09:16:44.051Z,10.85
2023-03-24T09:21:51.620Z,10.96
2023-03-24T09:26:56.868Z,11.13
2023-03-24T09:32:03.583Z,11.40
2023-03-24T09:37:09.182Z,11.44
2023-03-24T09:42:19.781Z,11.49
2023-03-24T09:47:31.077Z,11.45
2023-03-24T09:52:38.242Z,11.54
2023-03-24T09:57:46.537Z,11.58
2023-03-24T10:02:51.917Z,11.52
2023-03-24T10:08:01.274Z,11.60
2023-03-24T10:13:08.803Z,11.89
2023-03-24T10:18:28.757Z,12.32
2023-03-24T10:23:40.990Z,12.77
2023-03-24T10:28:52.344Z,13.17
2023-03-24T10:34:04.203Z,13.53
2023-03-24T10:44:17.293Z,13.63
2023-03-24T10:49:22.139Z,13.86
2023-03-24T10:54:27.574Z,14.00
2023-03-24T10:59:37.308Z,14.62
2023-03-24T11:04:45.648Z,14.35
2023-03-24T11:09:59.816Z,14.67
2023-03-24T11:15:21.249Z,14.70
2023-03-24T11:20:31.937Z,15.10
2023-03-24T11:25:40.894Z,15.55
2023-03-24T11:30:51.885Z,15.73
2023-03-24T11:36:05.172Z,15.81
2023-03-24T11:41:20.309Z,16.46
2023-03-24T11:46:26.717Z,17.14
2023-03-24T11:51:36.450Z,17.42
2023-03-24T11:56:43.713Z,17.49
2023-03-24T12:01:56.512Z,17.60
2023-03-24T12:07:18.413Z,16.43
2023-03-24T12:12:33.580Z,16.29
2023-03-24T12:17:42.493Z,16.57
2023-03-24T12:22:53.337Z,17.04
2023-03-24T12:28:08.371Z,16.66
2023-03-24T12:33:31.237Z,18.44
2023-03-24T12:38:45.631Z,19.77
2023-03-24T12:43:59.023Z,20.17
2023-03-24T12:49:24.464Z,20.43
2023-03-24T12:54:37.502Z,20.89
2023-03-24T12:59:45.034Z,19.63
2023-03-24T13:04:53.695Z,21.02
2023-03-24T13:10:04.365Z,21.10
2023-03-24T13:15:17.368Z,19.54
2023-03-24T13:20:26.593Z,19.10
2023-03-24T13:25:38.719Z,19.01
2023-03-24T13:30:44.489Z,18.67
2023-03-24T13:36:10.698Z,18.78
2023-03-24T13:41:20.525Z,18.50
2023-03-24T13:46:23.458Z,18.43
2023-03-24T13:51:31.504Z,17.82
2023-03-24T13:56:38.258Z,17.98
2023-03-24T14:01:44.610Z,17.56
2023-03-24T14:06:51.555Z,16.76
2023-03-24T14:12:18.584Z,17.30
2023-03-24T14:17:24.264Z,17.52
2023-03-24T14:22:33.567Z,16.82
2023-03-24T14:27:42.640Z,16.46
2023-03-24T14:32:48.066Z,16.61
2023-03-24T14:37:56.887Z,16.37
2023-03-24T14:43:25.783Z,16.62
2023-03-24T14:48:45.456Z,16.34
2023-03-24T14:53:50.618Z,16.93
2023-03-24T14:58:57.778Z,16.73
2023-03-24T15:04:06.599Z,17.07
2023-03-24T15:09:11.717Z,16.68
2023-03-24T15:14:23.622Z,16.82
2023-03-24T15:19:31.898Z,16.84
2023-03-24T15:24:38.359Z,16.70
2023-03-24T15:29:44.445Z,16.85
2023-03-24T15:34:54.076Z,16.80
2023-03-24T15:40:09.071Z,16.82
2023-03-24T15:45:24.588Z,16.88
2023-03-24T15:50:35.490Z,16.75
2023-03-24T15:55:44.782Z,16.49
2023-03-24T16:00:48.842Z,16.04
2023-03-24T16:05:52.684Z,15.69
2023-03-24T16:11:01.689Z,15.34
2023-03-24T16:16:18.060Z,15.61
2023-03-24T16:21:22.942Z,15.79
2023-03-24T16:26:29.101Z,15.95
2023-03-24T16:31:33.665Z,15.97
2023-03-24T16:36:36.712Z,15.80
2023-03-24T16:41:40.825Z,15.49
2023-03-24T16:46:46.564Z,15.12
2023-03-24T16:51:53.596Z,14.76
2023-03-24T16:56:57.702Z,14.57
2023-03-24T17:02:05.466Z,14.38
2023-03-24T17:07:09.946Z,14.08
2023-03-24T17:12:15.687Z,14.06
2023-03-24T17:17:19.818Z,13.76
2023-03-24T17:22:25.435Z,12.43
2023-03-24T17:27:35.628Z,12.04
2023-03-24T17:32:38.894Z,11.75
2023-03-24T17:37:45.123Z,11.52
2023-03-24T17:42:49.523Z,11.34
2023-03-24T17:47:59.314Z,11.24
2023-03-24T17:53:02.713Z,11.19
2023-03-24T17:58:07.308Z,11.11
2023-03-24T18:03:10.073Z,11.08
2023-03-24T18:08:13.968Z,11.15
2023-03-24T18:13:19.187Z,11.16
2023-03-24T18:18:22.072Z,11.17
2023-03-24T18:23:25.720Z,10.00
2023-03-24T18:28:30.098Z,9.47
2023-03-24T18:33:33.945Z,9.18
2023-03-24T18:38:37.876Z,9.03
2023-03-24T18:43:42.223Z,8.91
2023-03-24T18:48:46.581Z,8.93
2023-03-24T18:53:50.672Z,8.91
2023-03-24T18:58:55.223Z,8.82
2023-03-24T19:03:58.180Z,8.74
2023-03-24T19:09:02.768Z,8.67
2023-03-24T19:14:07.421Z,8.63
2023-03-24T19:19:12.302Z,8.57
2023-03-24T19:24:20.287Z,8.56
2023-03-24T19:29:24.845Z,8.56
2023-03-24T19:34:29.292Z,8.50
2023-03-24T19:39:32.220Z,8.53
2023-03-24T19:44:36.464Z,8.44
2023-03-24T19:49:41.292Z,8.45
2023-03-24T19:54:44.062Z,8.50
2023-03-24T19:59:49.335Z,8.51
2023-03-24T20:04:55.090Z,8.54
2023-03-24T20:09:58.567Z,8.44
2023-03-24T20:15:02.813Z,8.49
2023-03-24T20:20:07.237Z,8.46
2023-03-24T20:25:11.861Z,8.46
2023-03-24T20:30:20.164Z,8.39
2023-03-24T20:35:23.362Z,8.37
2023-03-24T20:40:26.334Z,8.44
2023-03-24T20:45:30.964Z,8.45
2023-03-24T20:50:34.103Z,8.42
2023-03-24T20:55:36.916Z,8.36
2023-03-24T21:00:46.175Z,8.32
2023-03-24T21:05:49.744Z,8.21
2023-03-24T21:10:56.137Z,8.16
2023-03-24T21:16:01.136Z,8.18
2023-03-24T21:21:04.687Z,8.16
2023-03-24T21:26:09.982Z,8.10
2023-03-24T21:31:19.367Z,8.08
2023-03-24T21:36:23.358Z,8.08
2023-03-24T21:41:26.312Z,8.12
2023-03-24T21:46:32.206Z,8.18
2023-03-24T21:51:36.809Z,8.20
2023-03-24T21:56:43.059Z,8.21
2023-03-24T22:01:47.608Z,8.21
2023-03-24T22:06:50.537Z,8.17
2023-03-24T22:11:57.197Z,8.10
2023-03-24T22:17:02.004Z,8.07
2023-03-24T22:22:05.275Z,8.02
2023-03-24T22:27:08.986Z,8.00
2023-03-24T22:32:14.318Z,8.01
2023-03-24T22:37:17.362Z,8.04
2023-03-24T22:42:20.852Z,8.06
2023-03-24T22:47:25.065Z,8.11
2023-03-24T22:52:28.270Z,8.08
2023-03-24T22:57:31.104Z,8.10
2023-03-24T23:02:36.497Z,8.05
2023-03-24T23:07:42.084Z,8.01
2023-03-24T23:12:46.007Z,7.98
2023-03-24T23:17:52.221Z,7.94
2023-03-24T23:22:57.706Z,7.91
2023-03-24T23:28:02.758Z,7.89
2023-03-24T23:33:14.656Z,7.90
2023-03-24T23:38:18.764Z,7.85
2023-03-24T23:43:21.617Z,7.83
2023-03-24T23:48:27.669Z,7.78
2023-03-24T23:53:31.399Z,7.74
2023-03-24T23:58:37.171Z,7.71
